Wapak, Ohio
Current Conditions -  °F | °C
As of 1:32 AM on Monday 26 Jan 2015 (Local Time) from KAXV Reporting Station
Light Snow Light Snow  
Wind Chill:   Ceiling: 1800
Heat Index: 19°   Visibility: 2mi
Dew Point: 18°   Wind: 12mph
Humidity: 93%   Direction: 10°N
Pressure: 29.84"   Gusts: NA
Location:  40.5656°N, 84.1367°W
Report Text: KAXV 260632Z AUTO 01010KT 2SM -SN SCT012 OVC018 M07/M08 A2984 RMK AO2
Loading
Personal Weather Stations






























Interactive Weather Map New forecast layout! Learn more

10-Day Weather Forecast

Advertisements
Track Severe Weather on mobile